Time;durP1;ratioP1;P1;durP2;ratioP2;P2;SDS_P1;SDS_P2;PMS_P1;PMS_P2;Temp;Humidity;BMP_temperature;BMP_pressure;BME280_temperature;BME280_humidity;BME280_pressure;Samples;Min_cycle;Max_cycle;Signal;HPM_P1;HPM_P2
2023/02/17 00:00:31;;;;;;;0.87;0.87;;;6.50;95.00;;;;;;5065425;28;20046;-81
2023/02/17 00:02:58;;;;;;;3.83;1.48;;;6.50;94.90;;;;;;5065039;28;20507;-81
2023/02/17 00:05:25;;;;;;;0.47;0.43;;;6.50;95.00;;;;;;5062942;28;20029;-80
2023/02/17 00:07:51;;;;;;;0.20;0.20;;;6.50;95.10;;;;;;5064852;28;20139;-80
2023/02/17 00:10:17;;;;;;;0.35;0.35;;;6.50;95.10;;;;;;5061953;28;20112;-82
2023/02/17 00:12:43;;;;;;;1.77;0.63;;;6.50;95.10;;;;;;5064464;28;20063;-81
2023/02/17 00:15:09;;;;;;;0.77;0.77;;;6.50;95.10;;;;;;5060201;28;20032;-82
2023/02/17 00:17:34;;;;;;;0.63;0.43;;;6.60;95.00;;;;;;5063436;28;20086;-82
2023/02/17 00:20:00;;;;;;;0.17;0.17;;;6.60;95.10;;;;;;5063391;28;20025;-82
2023/02/17 00:22:26;;;;;;;0.40;0.40;;;6.60;95.00;;;;;;5066181;28;20028;-82
2023/02/17 00:24:51;;;;;;;0.82;0.82;;;6.60;94.80;;;;;;5062913;28;20028;-81
2023/02/17 00:27:18;;;;;;;0.10;0.10;;;6.70;94.70;;;;;;5063459;28;20749;-82
2023/02/17 00:29:44;;;;;;;0.38;0.38;;;6.70;94.60;;;;;;5063814;28;20025;-82
2023/02/17 00:32:10;;;;;;;1.10;0.70;;;6.80;94.60;;;;;;5063221;28;20318;-82
2023/02/17 00:34:36;;;;;;;2.45;1.35;;;6.80;94.60;;;;;;5061450;28;20082;-81
2023/02/17 00:37:02;;;;;;;0.37;0.37;;;6.80;94.60;;;;;;5062761;28;20048;-81
2023/02/17 00:39:28;;;;;;;0.20;0.20;;;6.70;94.60;;;;;;5062146;28;20111;-81
2023/02/17 00:41:54;;;;;;;2.58;1.15;;;6.70;94.70;;;;;;5062060;28;20023;-81
2023/02/17 00:44:22;;;;;;;2.50;1.60;;;6.60;94.70;;;;;;5061402;28;20060;-81
2023/02/17 00:46:48;;;;;;;0.73;0.73;;;6.50;94.90;;;;;;5062757;28;20025;-81
2023/02/17 00:49:22;;;;;;;0.20;0.20;;;6.40;95.10;;;;;;5064103;28;20024;-81
2023/02/17 00:51:48;;;;;;;0.22;0.22;;;6.30;95.30;;;;;;5062303;28;20103;-81
2023/02/17 00:54:15;;;;;;;0.38;0.38;;;6.30;95.50;;;;;;5059591;28;20068;-81
2023/02/17 00:56:41;;;;;;;0.65;0.40;;;6.20;95.50;;;;;;5062082;28;20028;-81
2023/02/17 00:59:07;;;;;;;0.73;0.73;;;6.20;95.60;;;;;;5062780;28;20047;-82
2023/02/17 01:01:33;;;;;;;0.20;0.20;;;6.20;95.60;;;;;;5061821;28;20029;-82
2023/02/17 01:03:59;;;;;;;0.10;0.10;;;6.10;95.80;;;;;;5061649;28;20067;-82
2023/02/17 01:06:29;;;;;;;0.57;0.57;;;6.20;95.60;;;;;;5058462;28;20036;-83
2023/02/17 01:08:55;;;;;;;0.70;0.70;;;6.20;95.60;;;;;;5062401;28;20028;-85
2023/02/17 01:11:26;;;;;;;0.30;0.30;;;6.20;95.50;;;;;;5061827;28;20029;-84
2023/02/17 01:13:53;;;;;;;0.35;0.35;;;6.30;95.40;;;;;;5058844;28;20136;-82
2023/02/17 01:16:34;;;;;;;0.52;0.52;;;6.40;95.20;;;;;;5063072;28;20040;-82
2023/02/17 01:19:06;;;;;;;1.45;0.40;;;6.40;95.00;;;;;;5062249;28;20037;-82
2023/02/17 01:21:32;;;;;;;0.93;0.93;;;6.50;94.90;;;;;;5061981;28;20032;-81
2023/02/17 01:24:00;;;;;;;0.85;0.57;;;6.50;94.80;;;;;;5062138;28;20029;-80
2023/02/17 01:26:28;;;;;;;3.38;1.67;;;6.50;94.80;;;;;;5059537;28;20036;-81
2023/02/17 01:28:54;;;;;;;1.13;1.02;;;6.60;94.70;;;;;;5057650;28;20720;-82
2023/02/17 01:31:21;;;;;;;0.20;0.20;;;6.60;94.50;;;;;;5059389;28;20140;-82
2023/02/17 01:33:48;;;;;;;0.10;0.10;;;6.60;94.50;;;;;;5063459;28;20115;-82
2023/02/17 01:36:15;;;;;;;0.20;0.20;;;6.60;94.50;;;;;;5062299;28;20040;-82
2023/02/17 01:38:41;;;;;;;0.80;0.80;;;6.60;94.60;;;;;;5063673;28;20028;-82
2023/02/17 01:41:08;;;;;;;0.35;0.35;;;6.50;94.60;;;;;;5062674;28;20102;-82
2023/02/17 01:43:34;;;;;;;0.98;0.77;;;6.50;94.50;;;;;;5060202;28;20028;-82
2023/02/17 01:46:06;;;;;;;0.57;0.57;;;6.50;94.50;;;;;;5060282;28;20032;-82
2023/02/17 01:48:37;;;;;;;1.70;1.05;;;6.60;94.40;;;;;;5062590;28;20063;-80
2023/02/17 01:51:12;;;;;;;0.57;0.57;;;6.60;94.40;;;;;;5060409;28;20020;-80
2023/02/17 01:54:13;;;;;;;17.77;0.88;;;6.60;94.20;;;;;;5059276;28;20037;-81
2023/02/17 01:56:42;;;;;;;2.10;0.90;;;6.60;94.50;;;;;;5050441;28;20921;-81
2023/02/17 01:59:16;;;;;;;0.22;0.22;;;6.60;94.20;;;;;;5061060;28;20833;-80
2023/02/17 02:01:42;;;;;;;0.40;0.40;;;6.50;94.30;;;;;;5059713;28;20479;-80
2023/02/17 02:04:10;;;;;;;0.55;0.55;;;6.50;94.30;;;;;;5061709;28;20039;-80
2023/02/17 02:06:39;;;;;;;0.20;0.20;;;6.50;94.30;;;;;;5055515;28;20028;-78
2023/02/17 02:09:14;;;;;;;1.15;1.05;;;6.60;94.30;;;;;;5062412;28;20028;-78
2023/02/17 02:11:39;;;;;;;0.28;0.28;;;6.50;94.50;;;;;;5061861;28;20039;-77
2023/02/17 02:14:07;;;;;;;0.57;0.57;;;6.60;94.20;;;;;;5060158;28;20024;-77
2023/02/17 02:16:55;;;;;;;0.25;0.25;;;6.60;94.30;;;;;;5061883;28;20033;-78
2023/02/17 02:20:00;;;;;;;0.30;0.30;;;6.60;94.00;;;;;;5054137;28;20036;-78
2023/02/17 02:22:47;;;;;;;0.60;0.60;;;6.60;94.10;;;;;;5056641;28;20840;-77
2023/02/17 02:25:33;;;;;;;1.55;0.88;;;6.60;94.10;;;;;;5062736;28;20374;-76
2023/02/17 02:28:13;;;;;;;1.27;1.23;;;6.70;94.00;;;;;;5050976;28;20496;-77
2023/02/17 02:30:59;;;;;;;0.30;0.30;;;6.70;94.00;;;;;;5060352;28;20060;-77
2023/02/17 02:33:32;;;;;;;0.55;0.45;;;6.60;93.90;;;;;;5059645;28;20028;-77
2023/02/17 02:36:12;;;;;;;0.10;0.10;;;6.60;94.00;;;;;;5061861;28;20111;-77
2023/02/17 02:38:53;;;;;;;0.10;0.10;;;6.60;94.00;;;;;;5061279;28;20028;-77
2023/02/17 02:41:26;;;;;;;0.10;0.10;;;6.60;94.10;;;;;;5060666;28;20063;-77
2023/02/17 02:43:52;;;;;;;0.20;0.20;;;6.60;93.90;;;;;;5061667;28;20035;-77
2023/02/17 02:46:18;;;;;;;0.37;0.37;;;6.60;93.80;;;;;;5060824;28;20055;-77
2023/02/17 02:48:44;;;;;;;0.30;0.30;;;6.60;93.90;;;;;;5060324;28;20358;-77
2023/02/17 02:51:12;;;;;;;0.75;0.52;;;6.50;94.10;;;;;;5060875;28;20031;-76
2023/02/17 02:54:09;;;;;;;0.50;0.47;;;6.50;94.10;;;;;;5057415;28;20051;-77
2023/02/17 02:57:12;;;;;;;10.43;2.72;;;6.60;93.90;;;;;;5056417;28;20062;-77
2023/02/17 02:59:40;;;;;;;0.43;0.43;;;6.60;93.90;;;;;;5058281;28;20033;-77
2023/02/17 03:02:17;;;;;;;0.57;0.57;;;6.70;93.70;;;;;;5058579;28;20048;-78
2023/02/17 03:04:51;;;;;;;1.27;1.17;;;6.70;93.60;;;;;;5056898;28;20071;-78
2023/02/17 03:07:23;;;;;;;0.40;0.40;;;6.80;93.50;;;;;;5058680;28;20471;-78
2023/02/17 03:09:56;;;;;;;0.68;0.30;;;6.70;93.50;;;;;;5061300;28;20020;-78
2023/02/17 03:12:23;;;;;;;0.30;0.30;;;6.70;93.60;;;;;;5061039;28;20110;-79
2023/02/17 03:14:53;;;;;;;1.10;1.08;;;6.70;93.70;;;;;;5059333;28;20028;-79
2023/02/17 03:17:19;;;;;;;0.43;0.43;;;6.80;93.50;;;;;;5058299;28;20428;-78
2023/02/17 03:19:46;;;;;;;0.57;0.57;;;6.80;93.50;;;;;;5060165;28;20024;-79
2023/02/17 03:22:20;;;;;;;0.40;0.40;;;6.80;93.30;;;;;;5060581;28;20119;-78
2023/02/17 03:24:46;;;;;;;0.17;0.17;;;6.80;93.40;;;;;;5057629;28;20025;-78
2023/02/17 03:27:11;;;;;;;0.35;0.35;;;6.70;93.60;;;;;;5054288;28;20031;-79
2023/02/17 03:29:38;;;;;;;5.95;1.95;;;6.70;93.60;;;;;;5059032;28;20033;-77
2023/02/17 03:32:04;;;;;;;2.30;0.77;;;6.70;93.70;;;;;;5059691;28;20024;-78
2023/02/17 03:34:30;;;;;;;0.37;0.37;;;6.70;93.90;;;;;;5059181;28;20044;-76
2023/02/17 03:36:55;;;;;;;0.40;0.40;;;6.70;93.80;;;;;;5060928;28;20315;-77
2023/02/17 03:39:21;;;;;;;0.40;0.40;;;6.70;93.70;;;;;;5059961;28;20037;-75
2023/02/17 03:41:50;;;;;;;1.08;0.98;;;6.60;93.80;;;;;;5059780;28;20043;-78
2023/02/17 03:44:16;;;;;;;1.17;1.13;;;6.60;93.80;;;;;;5059213;28;20503;-76
2023/02/17 03:46:42;;;;;;;0.75;0.75;;;6.70;93.60;;;;;;5060595;28;20078;-76
2023/02/17 03:49:08;;;;;;;0.00;0.00;;;6.70;93.50;;;;;;5060394;28;20032;-76
2023/02/17 03:51:34;;;;;;;0.20;0.20;;;6.60;93.70;;;;;;5058547;28;20028;-76
2023/02/17 03:53:59;;;;;;;0.25;0.25;;;6.60;93.80;;;;;;5060667;28;20036;-76
2023/02/17 03:56:25;;;;;;;0.10;0.10;;;6.60;93.80;;;;;;5056674;28;20127;-77
2023/02/17 03:58:51;;;;;;;0.20;0.20;;;6.60;93.90;;;;;;5058452;28;20126;-78
2023/02/17 04:01:17;;;;;;;0.15;0.15;;;6.50;93.90;;;;;;5057530;28;20024;-78
2023/02/17 04:03:43;;;;;;;2.20;0.55;;;6.60;93.80;;;;;;5060424;28;20206;-78
2023/02/17 04:06:09;;;;;;;0.17;0.17;;;6.60;93.90;;;;;;5057356;28;20032;-79
2023/02/17 04:08:36;;;;;;;0.10;0.10;;;6.50;93.80;;;;;;5060776;28;20078;-78
2023/02/17 04:11:03;;;;;;;0.10;0.10;;;6.60;93.60;;;;;;5058890;28;20029;-78
2023/02/17 04:13:29;;;;;;;0.20;0.20;;;6.60;93.60;;;;;;5052081;28;20028;-77
2023/02/17 04:15:55;;;;;;;2.47;2.28;;;6.60;93.60;;;;;;5059080;28;20484;-79
2023/02/17 04:18:21;;;;;;;0.35;0.35;;;6.50;93.80;;;;;;5058270;28;20613;-79
2023/02/17 04:20:49;;;;;;;0.30;0.30;;;6.40;94.10;;;;;;5059966;28;20021;-80
2023/02/17 04:23:15;;;;;;;1.95;0.45;;;6.40;94.00;;;;;;5060788;28;20032;-81
2023/02/17 04:25:41;;;;;;;0.35;0.35;;;6.40;94.10;;;;;;5060266;28;20032;-79
2023/02/17 04:28:07;;;;;;;0.50;0.50;;;6.40;94.00;;;;;;5061310;28;20029;-79
2023/02/17 04:30:33;;;;;;;1.35;1.08;;;6.40;94.10;;;;;;5065458;28;20039;-79
2023/02/17 04:33:00;;;;;;;0.93;0.65;;;6.50;94.00;;;;;;5064650;28;20063;-77
2023/02/17 04:35:26;;;;;;;3.40;1.40;;;6.50;93.80;;;;;;5068606;28;20025;-78
2023/02/17 04:37:52;;;;;;;0.67;0.67;;;6.60;93.90;;;;;;5064466;28;20020;-78
2023/02/17 04:40:18;;;;;;;0.65;0.65;;;6.50;93.90;;;;;;5064741;28;21012;-78
2023/02/17 04:42:44;;;;;;;0.15;0.15;;;6.50;93.80;;;;;;5064727;28;20028;-78
2023/02/17 04:45:10;;;;;;;0.50;0.50;;;6.50;93.90;;;;;;5064135;28;20526;-77
2023/02/17 04:47:36;;;;;;;0.20;0.20;;;6.50;94.00;;;;;;5064384;28;20033;-77
2023/02/17 04:50:02;;;;;;;0.50;0.50;;;6.50;94.10;;;;;;5063803;28;20021;-79
2023/02/17 04:52:27;;;;;;;0.10;0.10;;;6.40;94.20;;;;;;5061304;28;20039;-78
2023/02/17 04:54:53;;;;;;;0.00;0.00;;;6.50;94.20;;;;;;5061087;28;20518;-78
2023/02/17 04:57:19;;;;;;;0.63;0.63;;;6.50;94.00;;;;;;5061025;28;20105;-77
2023/02/17 04:59:44;;;;;;;1.90;0.35;;;6.50;94.10;;;;;;5061543;28;20107;-79
2023/02/17 05:02:10;;;;;;;0.75;0.75;;;6.40;94.00;;;;;;5058699;28;20067;-79
2023/02/17 05:04:36;;;;;;;0.20;0.20;;;6.40;93.80;;;;;;5053845;28;20764;-78
2023/02/17 05:07:02;;;;;;;0.90;0.90;;;6.50;94.00;;;;;;5051862;28;20032;-78
2023/02/17 05:09:28;;;;;;;0.27;0.27;;;6.50;93.80;;;;;;5060351;28;20028;-80
2023/02/17 05:11:54;;;;;;;0.43;0.43;;;6.60;93.70;;;;;;5060762;28;20032;-81
2023/02/17 05:14:19;;;;;;;0.50;0.40;;;6.50;93.70;;;;;;5058463;28;20056;-80
2023/02/17 05:16:45;;;;;;;0.68;0.68;;;6.50;93.70;;;;;;5061509;28;20031;-80
2023/02/17 05:19:11;;;;;;;0.98;0.77;;;6.50;93.80;;;;;;5061860;28;20245;-80
2023/02/17 05:21:37;;;;;;;0.40;0.40;;;6.50;94.30;;;;;;5059874;28;20028;-82
2023/02/17 05:24:03;;;;;;;0.95;0.57;;;6.50;93.90;;;;;;5059318;28;20503;-80
2023/02/17 05:26:29;;;;;;;0.73;0.50;;;6.50;94.00;;;;;;5060206;28;20516;-80
2023/02/17 05:28:54;;;;;;;0.60;0.60;;;6.50;93.70;;;;;;5060716;28;20039;-82
2023/02/17 05:31:20;;;;;;;0.40;0.20;;;6.50;93.60;;;;;;5059091;28;20064;-82
2023/02/17 05:33:46;;;;;;;0.20;0.20;;;6.50;93.80;;;;;;5060595;28;20322;-81
2023/02/17 05:36:12;;;;;;;9.48;1.33;;;6.50;93.70;;;;;;5055826;28;20028;-82
2023/02/17 05:38:38;;;;;;;0.93;0.93;;;6.60;93.50;;;;;;5060901;28;20411;-83
2023/02/17 05:41:05;;;;;;;0.70;0.70;;;6.50;93.80;;;;;;5060115;28;20039;-83
2023/02/17 05:43:31;;;;;;;0.30;0.30;;;6.40;94.00;;;;;;5055648;28;20043;-85
2023/02/17 05:46:03;;;;;;;1.60;1.20;;;6.40;93.80;;;;;;5056526;28;20267;-82
2023/02/17 05:48:29;;;;;;;0.63;0.45;;;6.40;93.90;;;;;;5059257;28;20064;-81
2023/02/17 05:50:55;;;;;;;0.10;0.10;;;6.40;93.80;;;;;;5058714;28;20107;-83
2023/02/17 05:53:21;;;;;;;0.93;0.90;;;6.40;93.80;;;;;;5057632;28;20117;-84
2023/02/17 05:55:48;;;;;;;0.32;0.32;;;6.40;93.90;;;;;;5059896;28;20127;-83
2023/02/17 05:58:14;;;;;;;1.73;0.88;;;6.50;93.90;;;;;;5058929;28;20029;-83
2023/02/17 06:00:40;;;;;;;0.95;0.95;;;6.40;93.90;;;;;;5063901;28;20518;-83
2023/02/17 06:03:06;;;;;;;0.40;0.40;;;6.40;94.00;;;;;;5060298;28;20048;-83
2023/02/17 06:05:31;;;;;;;0.68;0.65;;;6.50;93.80;;;;;;5061498;28;20139;-83
2023/02/17 06:07:57;;;;;;;1.13;1.13;;;6.50;93.60;;;;;;5060008;28;20060;-83
2023/02/17 06:10:23;;;;;;;0.40;0.40;;;6.50;93.60;;;;;;5059868;28;20032;-82
2023/02/17 06:12:49;;;;;;;0.32;0.28;;;6.50;93.50;;;;;;5060264;28;20033;-82
2023/02/17 06:15:15;;;;;;;0.32;0.32;;;6.50;93.60;;;;;;5061044;28;20132;-84
2023/02/17 06:17:40;;;;;;;0.40;0.38;;;6.50;93.70;;;;;;5061260;28;20037;-81
2023/02/17 06:20:07;;;;;;;0.60;0.60;;;6.50;93.70;;;;;;5058091;28;20035;-82
2023/02/17 06:22:33;;;;;;;0.20;0.20;;;6.50;93.70;;;;;;5056760;28;20119;-84
2023/02/17 06:24:58;;;;;;;0.57;0.57;;;6.50;93.60;;;;;;5056566;28;20082;-83
2023/02/17 06:27:24;;;;;;;0.95;0.95;;;6.50;93.80;;;;;;5060334;28;20062;-83
2023/02/17 06:29:50;;;;;;;0.45;0.30;;;6.50;93.80;;;;;;5054807;28;20131;-87
2023/02/17 06:32:16;;;;;;;0.25;0.25;;;6.50;93.70;;;;;;5059628;28;20127;-83
2023/02/17 06:34:41;;;;;;;0.22;0.22;;;6.50;93.60;;;;;;5057984;28;20071;-82
2023/02/17 06:37:07;;;;;;;1.00;0.95;;;6.60;93.50;;;;;;5059648;28;20036;-82
2023/02/17 06:39:33;;;;;;;0.20;0.20;;;6.60;93.50;;;;;;5060304;28;20398;-82
2023/02/17 06:41:59;;;;;;;0.75;0.75;;;6.60;93.50;;;;;;5058952;28;20024;-82
2023/02/17 06:44:24;;;;;;;0.57;0.57;;;6.60;93.50;;;;;;5055229;28;20036;-82
2023/02/17 06:46:50;;;;;;;0.70;0.70;;;6.50;93.60;;;;;;5058847;28;20031;-82
2023/02/17 06:49:16;;;;;;;0.73;0.73;;;6.60;93.40;;;;;;5058861;28;20035;-81
2023/02/17 06:51:42;;;;;;;1.13;1.13;;;6.50;93.70;;;;;;5051695;28;20029;-79
2023/02/17 06:54:07;;;;;;;0.17;0.17;;;6.50;93.90;;;;;;5058290;28;20047;-78
2023/02/17 06:56:33;;;;;;;0.10;0.10;;;6.60;93.80;;;;;;5060700;28;20032;-79
2023/02/17 06:59:00;;;;;;;0.17;0.17;;;6.60;93.70;;;;;;5061733;28;20032;-80
2023/02/17 07:01:26;;;;;;;0.32;0.32;;;6.70;93.50;;;;;;5056612;28;20107;-80
2023/02/17 07:03:53;;;;;;;1.30;1.20;;;6.70;93.40;;;;;;5062267;28;20753;-80
2023/02/17 07:06:19;;;;;;;0.40;0.40;;;6.80;93.30;;;;;;5060819;28;20508;-81
2023/02/17 07:08:45;;;;;;;1.15;1.08;;;6.80;93.20;;;;;;5062194;28;20029;-81
2023/02/17 07:11:12;;;;;;;0.55;0.55;;;6.80;93.40;;;;;;5062989;28;20044;-83
2023/02/17 07:13:39;;;;;;;0.45;0.45;;;6.60;93.70;;;;;;5062402;28;20059;-82
2023/02/17 07:16:05;;;;;;;0.40;0.40;;;6.60;93.70;;;;;;5061864;28;20111;-83
2023/02/17 07:18:31;;;;;;;0.65;0.65;;;6.60;93.60;;;;;;5061844;28;20032;-82
2023/02/17 07:20:57;;;;;;;0.63;0.63;;;6.70;93.40;;;;;;5061698;28;20085;-81
2023/02/17 07:23:23;;;;;;;0.50;0.50;;;6.70;93.50;;;;;;5060132;28;20063;-82
2023/02/17 07:25:48;;;;;;;0.70;0.40;;;6.80;93.60;;;;;;5060199;28;20028;-81
2023/02/17 07:28:14;;;;;;;0.20;0.20;;;6.80;93.30;;;;;;5058645;28;20021;-81
2023/02/17 07:30:42;;;;;;;0.55;0.55;;;6.90;93.20;;;;;;5061108;28;20040;-80
2023/02/17 07:33:08;;;;;;;0.03;0.03;;;6.80;93.20;;;;;;5060952;28;20025;-80
2023/02/17 07:35:39;;;;;;;6.45;0.55;;;6.80;93.20;;;;;;5062146;28;20101;-81
2023/02/17 07:38:04;;;;;;;2.42;1.20;;;6.70;93.30;;;;;;5061047;28;20033;-81
2023/02/17 07:40:30;;;;;;;1.00;0.90;;;6.60;93.50;;;;;;5062207;28;20036;-80
2023/02/17 07:42:56;;;;;;;0.17;0.17;;;6.60;93.80;;;;;;5061829;28;20102;-80
2023/02/17 07:45:22;;;;;;;0.73;0.73;;;6.60;93.70;;;;;;5051262;28;20028;-81
2023/02/17 07:47:47;;;;;;;0.60;0.60;;;7.00;93.20;;;;;;5060221;28;20033;-80
2023/02/17 07:50:13;;;;;;;0.25;0.25;;;7.30;92.40;;;;;;5061934;28;20108;-81
2023/02/17 07:52:39;;;;;;;0.30;0.30;;;7.50;91.90;;;;;;5061633;28;20052;-81
2023/02/17 07:55:04;;;;;;;1.35;1.08;;;8.00;91.30;;;;;;5061799;28;20115;-81
2023/02/17 07:57:30;;;;;;;2.17;1.13;;;8.50;90.30;;;;;;5061265;28;20040;-80
2023/02/17 07:59:56;;;;;;;1.23;1.13;;;8.00;91.40;;;;;;5060189;28;20114;-80
2023/02/17 08:02:22;;;;;;;0.15;0.15;;;7.90;91.50;;;;;;5056233;28;20792;-80
2023/02/17 08:04:47;;;;;;;1.42;1.15;;;8.40;90.80;;;;;;5060928;28;20175;-80
2023/02/17 08:07:13;;;;;;;0.38;0.20;;;7.90;91.30;;;;;;5062831;28;20024;-80
2023/02/17 08:15:09;;;;;;;1.15;1.10;;;10.30;87.70;;;;;;5063317;28;20031;-81
2023/02/17 08:17:35;;;;;;;1.50;0.98;;;10.90;84.30;;;;;;5061035;28;20032;-81
2023/02/17 08:20:01;;;;;;;1.17;1.17;;;10.90;83.10;;;;;;5060196;28;20031;-80
2023/02/17 08:22:27;;;;;;;0.40;0.40;;;10.90;83.90;;;;;;5056823;28;20029;-80
2023/02/17 08:24:53;;;;;;;0.43;0.43;;;11.10;83.50;;;;;;5057594;28;20032;-81
2023/02/17 08:27:20;;;;;;;1.13;1.13;;;11.90;81.70;;;;;;5063853;28;20103;-80
2023/02/17 08:29:45;;;;;;;;;;;12.80;79.20;;;;;;5059639;28;20024;-79
2023/02/17 08:32:12;;;;;;;0.67;0.57;;;11.70;80.10;;;;;;5057877;28;19951;-80
2023/02/17 08:34:38;;;;;;;0.43;0.43;;;10.80;83.40;;;;;;5056643;28;20029;-80
2023/02/17 08:37:06;;;;;;;0.30;0.30;;;10.50;84.10;;;;;;5059183;28;20045;-80
2023/02/17 08:39:33;;;;;;;0.55;0.28;;;10.20;85.50;;;;;;5064300;28;20047;-80
2023/02/17 08:41:59;;;;;;;0.38;0.38;;;10.40;85.80;;;;;;5059106;28;20025;-80
2023/02/17 08:44:25;;;;;;;1.38;1.17;;;10.10;86.50;;;;;;5061651;28;20856;-80
2023/02/17 08:46:52;;;;;;;1.23;1.13;;;9.90;86.70;;;;;;5059537;28;20025;-80
2023/02/17 08:49:20;;;;;;;1.17;1.08;;;9.80;87.30;;;;;;5064250;28;20020;-81
2023/02/17 08:51:47;;;;;;;0.70;0.70;;;9.60;87.00;;;;;;5061270;28;20082;-80
2023/02/17 08:54:13;;;;;;;1.38;1.23;;;9.60;87.40;;;;;;5064362;28;20063;-80
2023/02/17 08:56:39;;;;;;;0.50;0.50;;;9.80;86.10;;;;;;5062792;28;20044;-80
2023/02/17 08:59:06;;;;;;;0.75;0.57;;;10.30;85.20;;;;;;5060894;28;20021;-80
2023/02/17 09:01:32;;;;;;;;;;;11.70;82.00;;;;;;5055665;28;20037;-80
2023/02/17 09:04:00;;;;;;;1.42;0.90;;;11.20;81.50;;;;;;5062011;28;20263;-80
2023/02/17 09:06:54;;;;;;;0.25;0.25;;;10.50;83.50;;;;;;5062734;28;20058;-80
2023/02/17 09:09:22;;;;;;;0.65;0.65;;;11.00;83.60;;;;;;5053360;28;20045;-80
2023/02/17 09:11:48;;;;;;;2.30;0.43;;;12.10;81.40;;;;;;5056403;28;20162;-81
2023/02/17 09:14:14;;;;;;;0.33;0.33;;;12.90;80.00;;;;;;5062285;28;20491;-80
2023/02/17 09:16:40;;;;;;;0.27;0.27;;;13.10;78.60;;;;;;5061869;28;20103;-80
2023/02/17 09:19:05;;;;;;;0.28;0.28;;;13.50;79.50;;;;;;5063528;28;20514;-80
2023/02/17 09:21:31;;;;;;;0.52;0.52;;;13.80;77.10;;;;;;5061985;28;20044;-80
2023/02/17 09:23:57;;;;;;;0.93;0.93;;;13.90;76.80;;;;;;5063660;28;20137;-81
2023/02/17 09:26:22;;;;;;;0.55;0.55;;;14.00;77.80;;;;;;5063360;28;20028;-80
2023/02/17 09:28:49;;;;;;;0.40;0.40;;;13.30;76.30;;;;;;5059936;28;20164;-80
2023/02/17 09:31:18;;;;;;;0.52;0.52;;;13.60;75.60;;;;;;5063387;28;20029;-80
2023/02/17 09:33:44;;;;;;;1.02;0.52;;;14.20;78.10;;;;;;5062389;28;20583;-81
2023/02/17 09:36:14;;;;;;;2.25;0.85;;;14.40;77.30;;;;;;5060155;28;20028;-80
2023/02/17 09:38:40;;;;;;;0.57;0.57;;;14.50;76.40;;;;;;5063172;28;20056;-80
2023/02/17 09:41:38;;;;;;;0.45;0.45;;;14.40;75.50;;;;;;5062925;28;20757;-81
2023/02/17 09:44:33;;;;;;;0.77;0.77;;;14.20;75.60;;;;;;5056644;28;20028;-81
2023/02/17 09:47:09;;;;;;;3.40;1.65;;;14.10;76.30;;;;;;5053701;28;20044;-81
2023/02/17 09:49:46;;;;;;;0.30;0.30;;;13.70;78.00;;;;;;5047708;28;20391;-81
2023/02/17 09:52:30;;;;;;;;;;;13.50;77.40;;;;;;5050066;28;20036;-81
2023/02/17 09:55:07;;;;;;;0.50;0.30;;;13.60;76.10;;;;;;5062564;28;19916;-80
2023/02/17 09:57:48;;;;;;;0.63;0.63;;;13.70;77.30;;;;;;5058790;28;20112;-81
2023/02/17 10:00:20;;;;;;;0.63;0.63;;;13.60;75.90;;;;;;5055400;28;20051;-80
2023/02/17 10:03:14;;;;;;;0.77;0.77;;;13.80;77.30;;;;;;5060536;28;20608;-81
2023/02/17 10:06:04;;;;;;;1.77;0.95;;;13.70;76.60;;;;;;5062322;28;20067;-80
2023/02/17 10:09:05;;;;;;;0.45;0.45;;;13.70;77.80;;;;;;5056159;28;20037;-81
2023/02/17 10:11:53;;;;;;;1.25;0.80;;;13.70;79.00;;;;;;5028351;28;20072;-81
2023/02/17 10:14:55;;;;;;;1.25;0.90;;;13.80;78.20;;;;;;5055930;28;20044;-81
2023/02/17 10:17:20;;;;;;;0.85;0.85;;;14.00;79.10;;;;;;5060590;28;20797;-81
2023/02/17 10:19:51;;;;;;;0.30;0.30;;;14.00;77.60;;;;;;5062038;28;20024;-80
2023/02/17 10:22:19;;;;;;;0.63;0.63;;;14.00;79.00;;;;;;5060660;28;20028;-81
2023/02/17 10:24:45;;;;;;;0.25;0.25;;;14.50;78.50;;;;;;5061559;28;20036;-81
2023/02/17 10:27:21;;;;;;;1.30;1.20;;;14.70;77.20;;;;;;5057956;28;20765;-80
2023/02/17 10:30:08;;;;;;;0.35;0.35;;;14.60;79.30;;;;;;5062504;28;20112;-81
2023/02/17 10:33:06;;;;;;;2.70;0.88;;;14.70;79.60;;;;;;5061974;28;20028;-80
2023/02/17 10:35:37;;;;;;;0.82;0.55;;;14.50;79.50;;;;;;5041731;28;20417;-80
2023/02/17 10:38:20;;;;;;;0.28;0.28;;;14.80;79.90;;;;;;5061949;28;20021;-80
2023/02/17 10:40:48;;;;;;;1.27;0.77;;;14.60;79.80;;;;;;5060539;28;20032;-80
2023/02/17 10:43:20;;;;;;;0.63;0.63;;;14.50;82.00;;;;;;5062609;28;20045;-80
2023/02/17 10:45:48;;;;;;;0.93;0.93;;;14.70;82.60;;;;;;5055285;28;20040;-82
2023/02/17 10:48:23;;;;;;;0.43;0.43;;;14.80;83.10;;;;;;5061998;28;20132;-81
2023/02/17 10:50:49;;;;;;;2.50;1.15;;;14.80;84.30;;;;;;5055283;28;20066;-80
2023/02/17 10:53:24;;;;;;;0.45;0.45;;;14.80;83.80;;;;;;5062173;28;20050;-81
2023/02/17 10:55:56;;;;;;;1.10;0.82;;;14.90;85.70;;;;;;5056531;28;20043;-80
2023/02/17 10:58:30;;;;;;;2.83;1.48;;;15.00;85.60;;;;;;5061488;28;20102;-80
2023/02/17 11:00:56;;;;;;;0.47;0.47;;;14.80;82.00;;;;;;5055634;28;20094;-81
2023/02/17 11:03:29;;;;;;;0.43;0.43;;;14.70;82.90;;;;;;5055693;28;20057;-81
2023/02/17 11:06:16;;;;;;;0.30;0.30;;;14.70;84.70;;;;;;5061842;28;20094;-81
2023/02/17 11:08:59;;;;;;;0.35;0.35;;;14.70;85.50;;;;;;5061924;28;20049;-82
2023/02/17 11:11:29;;;;;;;0.57;0.57;;;14.60;84.60;;;;;;5056646;28;20017;-80
2023/02/17 11:14:06;;;;;;;0.20;0.20;;;14.60;84.30;;;;;;5061423;28;20028;-81
2023/02/17 11:16:40;;;;;;;0.50;0.50;;;14.20;85.40;;;;;;5061736;28;20056;-81
2023/02/17 11:19:18;;;;;;;1.85;0.43;;;14.40;85.60;;;;;;5058943;28;20419;-82
2023/02/17 11:21:44;;;;;;;0.75;0.73;;;14.30;84.60;;;;;;5046610;28;20036;-81
2023/02/17 11:24:10;;;;;;;0.63;0.63;;;14.40;85.50;;;;;;5062784;28;20098;-80
2023/02/17 11:26:36;;;;;;;0.60;0.60;;;14.60;88.00;;;;;;5049980;28;20033;-82
2023/02/17 11:29:21;;;;;;;0.10;0.10;;;14.40;87.10;;;;;;5046562;28;20748;-81
2023/02/17 11:32:07;;;;;;;1.05;0.80;;;14.50;89.30;;;;;;5046670;28;20027;-81
2023/02/17 11:34:35;;;;;;;0.63;0.63;;;14.40;88.40;;;;;;5046607;28;20041;-82
2023/02/17 11:37:12;;;;;;;0.47;0.47;;;14.40;85.50;;;;;;5047146;28;20025;-80
2023/02/17 11:39:41;;;;;;;0.82;0.38;;;14.30;85.80;;;;;;5053204;28;20029;-81
2023/02/17 11:42:29;;;;;;;4.47;0.80;;;14.30;86.10;;;;;;5050759;28;20757;-81
2023/02/17 11:44:57;;;;;;;0.60;0.60;;;14.20;82.90;;;;;;5052278;28;20025;-82
2023/02/17 11:47:43;;;;;;;0.68;0.68;;;14.10;83.60;;;;;;5057772;28;20051;-83
2023/02/17 11:50:18;;;;;;;0.80;0.57;;;14.20;85.00;;;;;;5054029;28;20082;-81
2023/02/17 11:52:53;;;;;;;0.13;0.13;;;14.20;82.60;;;;;;5056145;28;20038;-81
2023/02/17 11:55:47;;;;;;;0.30;0.30;;;14.20;81.40;;;;;;5048145;28;20039;-81
2023/02/17 11:58:53;;;;;;;0.40;0.40;;;13.90;77.60;;;;;;5045840;28;20024;-81
2023/02/17 12:01:39;;;;;;;0.10;0.10;;;13.90;79.70;;;;;;5051193;28;20032;-81
2023/02/17 12:04:20;;;;;;;0.30;0.30;;;13.80;78.90;;;;;;5050035;28;20029;-81
2023/02/17 12:07:18;;;;;;;0.73;0.73;;;13.90;85.10;;;;;;5058727;28;20889;-82
2023/02/17 12:09:44;;;;;;;0.00;0.00;;;13.90;83.40;;;;;;5051058;28;20127;-81
2023/02/17 12:12:35;;;;;;;0.30;0.30;;;14.20;85.70;;;;;;5063929;28;20202;-81
2023/02/17 12:15:20;;;;;;;0.25;0.25;;;14.30;85.20;;;;;;5063055;28;20060;-81
2023/02/17 12:18:04;;;;;;;0.63;0.63;;;14.20;83.00;;;;;;5055903;28;20643;-81
2023/02/17 12:20:30;;;;;;;0.28;0.28;;;14.30;83.50;;;;;;5054907;28;20166;-81
2023/02/17 12:23:20;;;;;;;0.35;0.35;;;14.30;83.30;;;;;;5051205;28;20071;-81
2023/02/17 12:25:51;;;;;;;0.08;0.08;;;14.30;82.80;;;;;;5059107;28;20182;-81
2023/02/17 12:28:26;;;;;;;0.10;0.10;;;14.30;82.90;;;;;;5055877;28;20506;-83
2023/02/17 12:31:03;;;;;;;0.43;0.43;;;14.70;84.20;;;;;;5058495;28;20021;-82
2023/02/17 12:34:15;;;;;;;0.70;0.68;;;14.50;82.70;;;;;;5049996;28;20111;-82
2023/02/17 12:36:42;;;;;;;0.70;0.65;;;14.30;80.20;;;;;;4999503;28;20092;-81
2023/02/17 12:39:17;;;;;;;0.20;0.20;;;14.30;83.60;;;;;;5054652;28;20025;-82
2023/02/17 12:41:56;;;;;;;2.42;1.05;;;14.40;85.90;;;;;;5051169;28;20020;-82
2023/02/17 12:44:29;;;;;;;0.80;0.80;;;14.40;85.50;;;;;;5048744;28;20032;-83
2023/02/17 12:47:13;;;;;;;0.20;0.20;;;14.50;84.60;;;;;;5057099;28;20067;-83
2023/02/17 12:49:48;;;;;;;0.85;0.85;;;14.40;84.00;;;;;;5062640;28;20074;-82
2023/02/17 12:52:21;;;;;;;0.50;0.50;;;14.40;85.20;;;;;;5063230;28;20021;-81
2023/02/17 12:55:01;;;;;;;0.55;0.55;;;14.40;84.80;;;;;;5063697;28;20143;-81
2023/02/17 12:57:46;;;;;;;0.55;0.55;;;14.30;82.70;;;;;;5045692;28;20029;-82
2023/02/17 13:00:32;;;;;;;0.10;0.10;;;14.30;82.60;;;;;;5063960;28;20059;-82
2023/02/17 13:03:01;;;;;;;0.47;0.28;;;14.40;83.10;;;;;;5059843;28;20049;-83
2023/02/17 13:05:37;;;;;;;1.13;1.02;;;14.40;82.60;;;;;;5060805;28;20122;-82
2023/02/17 13:08:10;;;;;;;0.20;0.20;;;14.30;81.10;;;;;;5062766;28;20029;-81
2023/02/17 13:10:39;;;;;;;1.67;0.82;;;14.50;84.30;;;;;;5059991;28;20079;-81
2023/02/17 13:13:11;;;;;;;0.60;0.60;;;14.30;81.10;;;;;;5064228;28;20074;-82
2023/02/17 13:15:45;;;;;;;0.20;0.20;;;14.30;85.40;;;;;;5062249;28;20573;-82